sensor_id;sensor_type;location;lat;lon;timestamp;P1;durP1;ratioP1;P2;durP2;ratioP2
69795;SDS011;57073;45.650;9.612;2023-02-15T00:00:07;35.57;;;14.90;;
69795;SDS011;57073;45.650;9.612;2023-02-15T00:10:10;30.57;;;13.37;;
69795;SDS011;57073;45.650;9.612;2023-02-15T00:20:11;29.10;;;12.70;;
69795;SDS011;57073;45.650;9.612;2023-02-15T00:30:12;31.93;;;12.77;;
69795;SDS011;57073;45.650;9.612;2023-02-15T00:40:12;26.33;;;12.00;;
69795;SDS011;57073;45.650;9.612;2023-02-15T00:50:13;30.88;;;12.35;;
69795;SDS011;57073;45.650;9.612;2023-02-15T01:00:13;30.38;;;12.20;;
69795;SDS011;57073;45.650;9.612;2023-02-15T01:10:14;32.50;;;12.35;;
69795;SDS011;57073;45.650;9.612;2023-02-15T01:20:14;31.60;;;12.03;;
69795;SDS011;57073;45.650;9.612;2023-02-15T01:30:15;22.02;;;9.73;;
69795;SDS011;57073;45.650;9.612;2023-02-15T01:40:16;25.87;;;11.17;;
69795;SDS011;57073;45.650;9.612;2023-02-15T01:50:18;25.75;;;11.82;;
69795;SDS011;57073;45.650;9.612;2023-02-15T02:00:25;34.23;;;13.43;;
69795;SDS011;57073;45.650;9.612;2023-02-15T02:10:26;28.47;;;12.87;;
69795;SDS011;57073;45.650;9.612;2023-02-15T02:20:28;27.30;;;12.47;;
69795;SDS011;57073;45.650;9.612;2023-02-15T02:51:01;26.50;;;11.30;;
69795;SDS011;57073;45.650;9.612;2023-02-15T03:02:04;25.80;;;10.68;;
69795;SDS011;57073;45.650;9.612;2023-02-15T03:11:46;26.47;;;11.10;;
69795;SDS011;57073;45.650;9.612;2023-02-15T03:21:49;26.25;;;10.85;;
69795;SDS011;57073;45.650;9.612;2023-02-15T03:31:59;27.27;;;10.77;;
69795;SDS011;57073;45.650;9.612;2023-02-15T03:52:41;28.33;;;10.52;;
69795;SDS011;57073;45.650;9.612;2023-02-15T04:02:54;30.02;;;12.02;;
69795;SDS011;57073;45.650;9.612;2023-02-15T04:13:17;23.70;;;10.17;;
69795;SDS011;57073;45.650;9.612;2023-02-15T04:23:22;26.23;;;10.60;;
69795;SDS011;57073;45.650;9.612;2023-02-15T04:33:41;25.85;;;10.75;;
69795;SDS011;57073;45.650;9.612;2023-02-15T04:43:43;26.20;;;10.40;;
69795;SDS011;57073;45.650;9.612;2023-02-15T04:53:44;22.38;;;9.50;;
69795;SDS011;57073;45.650;9.612;2023-02-15T05:03:44;25.47;;;9.13;;
69795;SDS011;57073;45.650;9.612;2023-02-15T05:13:44;19.80;;;8.90;;
69795;SDS011;57073;45.650;9.612;2023-02-15T05:23:44;20.80;;;8.65;;
69795;SDS011;57073;45.650;9.612;2023-02-15T05:33:45;19.00;;;7.53;;
69795;SDS011;57073;45.650;9.612;2023-02-15T05:43:45;21.08;;;7.88;;
69795;SDS011;57073;45.650;9.612;2023-02-15T05:53:46;22.58;;;8.75;;
69795;SDS011;57073;45.650;9.612;2023-02-15T06:03:46;22.25;;;7.85;;
69795;SDS011;57073;45.650;9.612;2023-02-15T06:13:47;26.38;;;7.97;;
69795;SDS011;57073;45.650;9.612;2023-02-15T06:23:47;21.33;;;7.50;;
69795;SDS011;57073;45.650;9.612;2023-02-15T06:33:47;18.83;;;8.30;;
69795;SDS011;57073;45.650;9.612;2023-02-15T06:43:48;19.73;;;7.33;;
69795;SDS011;57073;45.650;9.612;2023-02-15T06:53:48;18.42;;;8.60;;
69795;SDS011;57073;45.650;9.612;2023-02-15T07:03:49;16.70;;;6.90;;
69795;SDS011;57073;45.650;9.612;2023-02-15T07:13:49;18.67;;;6.03;;
69795;SDS011;57073;45.650;9.612;2023-02-15T07:23:50;14.53;;;6.17;;
69795;SDS011;57073;45.650;9.612;2023-02-15T07:33:50;15.73;;;6.13;;
69795;SDS011;57073;45.650;9.612;2023-02-15T07:43:51;20.00;;;8.37;;
69795;SDS011;57073;45.650;9.612;2023-02-15T07:53:51;26.60;;;9.38;;
69795;SDS011;57073;45.650;9.612;2023-02-15T08:03:52;30.92;;;11.68;;
69795;SDS011;57073;45.650;9.612;2023-02-15T08:14:12;31.53;;;12.07;;
69795;SDS011;57073;45.650;9.612;2023-02-15T08:24:16;28.00;;;11.97;;
69795;SDS011;57073;45.650;9.612;2023-02-15T08:34:19;24.27;;;10.93;;
69795;SDS011;57073;45.650;9.612;2023-02-15T08:44:21;31.63;;;12.70;;
69795;SDS011;57073;45.650;9.612;2023-02-15T08:54:22;28.80;;;12.60;;
69795;SDS011;57073;45.650;9.612;2023-02-15T09:04:22;28.08;;;11.98;;
69795;SDS011;57073;45.650;9.612;2023-02-15T09:14:23;24.43;;;10.77;;
69795;SDS011;57073;45.650;9.612;2023-02-15T09:24:24;27.27;;;12.25;;
69795;SDS011;57073;45.650;9.612;2023-02-15T09:34:25;29.27;;;12.13;;
69795;SDS011;57073;45.650;9.612;2023-02-15T10:05:39;34.85;;;15.00;;
69795;SDS011;57073;45.650;9.612;2023-02-15T10:16:13;33.23;;;13.27;;
69795;SDS011;57073;45.650;9.612;2023-02-15T10:26:44;36.93;;;15.83;;
69795;SDS011;57073;45.650;9.612;2023-02-15T10:37:05;44.47;;;17.67;;
69795;SDS011;57073;45.650;9.612;2023-02-15T10:47:35;38.73;;;16.80;;
69795;SDS011;57073;45.650;9.612;2023-02-15T11:08:11;38.03;;;16.13;;
69795;SDS011;57073;45.650;9.612;2023-02-15T11:18:16;34.23;;;14.20;;
69795;SDS011;57073;45.650;9.612;2023-02-15T11:28:25;34.83;;;14.13;;
69795;SDS011;57073;45.650;9.612;2023-02-15T11:38:32;37.58;;;15.02;;
69795;SDS011;57073;45.650;9.612;2023-02-15T11:48:34;37.60;;;14.97;;
69795;SDS011;57073;45.650;9.612;2023-02-15T11:58:40;40.17;;;16.42;;
69795;SDS011;57073;45.650;9.612;2023-02-15T12:08:49;39.37;;;16.60;;
69795;SDS011;57073;45.650;9.612;2023-02-15T12:18:56;45.03;;;17.30;;
69795;SDS011;57073;45.650;9.612;2023-02-15T12:29:00;45.63;;;19.17;;
69795;SDS011;57073;45.650;9.612;2023-02-15T12:59:20;44.33;;;17.00;;
69795;SDS011;57073;45.650;9.612;2023-02-15T13:09:38;40.70;;;16.65;;
69795;SDS011;57073;45.650;9.612;2023-02-15T13:19:44;41.27;;;16.40;;
69795;SDS011;57073;45.650;9.612;2023-02-15T13:29:52;40.67;;;16.17;;
69795;SDS011;57073;45.650;9.612;2023-02-15T13:40:00;44.95;;;17.88;;
69795;SDS011;57073;45.650;9.612;2023-02-15T14:11:01;51.90;;;19.13;;
69795;SDS011;57073;45.650;9.612;2023-02-15T14:21:17;44.10;;;18.90;;
69795;SDS011;57073;45.650;9.612;2023-02-15T14:31:28;56.63;;;23.50;;
69795;SDS011;57073;45.650;9.612;2023-02-15T14:41:43;51.57;;;22.27;;
69795;SDS011;57073;45.650;9.612;2023-02-15T14:51:53;50.70;;;20.53;;
69795;SDS011;57073;45.650;9.612;2023-02-15T15:01:57;53.03;;;23.25;;
69795;SDS011;57073;45.650;9.612;2023-02-15T15:22:24;62.00;;;23.77;;
69795;SDS011;57073;45.650;9.612;2023-02-15T15:32:27;55.25;;;21.98;;
69795;SDS011;57073;45.650;9.612;2023-02-15T15:52:54;54.53;;;21.70;;
69795;SDS011;57073;45.650;9.612;2023-02-15T16:02:58;50.23;;;20.57;;
69795;SDS011;57073;45.650;9.612;2023-02-15T16:12:59;52.10;;;20.58;;
69795;SDS011;57073;45.650;9.612;2023-02-15T16:23:14;57.40;;;20.03;;
69795;SDS011;57073;45.650;9.612;2023-02-15T16:33:37;55.60;;;22.20;;
69795;SDS011;57073;45.650;9.612;2023-02-15T16:43:40;59.00;;;22.33;;
69795;SDS011;57073;45.650;9.612;2023-02-15T16:53:43;64.93;;;23.17;;
69795;SDS011;57073;45.650;9.612;2023-02-15T17:03:48;60.20;;;24.08;;
69795;SDS011;57073;45.650;9.612;2023-02-15T17:24:14;65.70;;;25.83;;
69795;SDS011;57073;45.650;9.612;2023-02-15T17:44:48;71.13;;;28.37;;
69795;SDS011;57073;45.650;9.612;2023-02-15T17:54:49;64.47;;;25.90;;
69795;SDS011;57073;45.650;9.612;2023-02-15T18:05:14;80.60;;;32.07;;
69795;SDS011;57073;45.650;9.612;2023-02-15T18:15:34;66.30;;;25.37;;
69795;SDS011;57073;45.650;9.612;2023-02-15T18:25:34;71.90;;;25.87;;
69795;SDS011;57073;45.650;9.612;2023-02-15T18:35:34;71.60;;;28.42;;
69795;SDS011;57073;45.650;9.612;2023-02-15T18:45:35;69.73;;;25.83;;
69795;SDS011;57073;45.650;9.612;2023-02-15T18:55:37;68.53;;;27.88;;
69795;SDS011;57073;45.650;9.612;2023-02-15T19:05:39;59.78;;;27.88;;
69795;SDS011;57073;45.650;9.612;2023-02-15T19:15:40;66.30;;;29.17;;
69795;SDS011;57073;45.650;9.612;2023-02-15T19:25:41;68.40;;;29.52;;
69795;SDS011;57073;45.650;9.612;2023-02-15T19:35:41;66.03;;;27.67;;
69795;SDS011;57073;45.650;9.612;2023-02-15T19:45:44;64.32;;;28.33;;
69795;SDS011;57073;45.650;9.612;2023-02-15T19:55:45;69.40;;;27.87;;
69795;SDS011;57073;45.650;9.612;2023-02-15T20:05:45;68.18;;;29.70;;
69795;SDS011;57073;45.650;9.612;2023-02-15T20:15:47;74.30;;;31.13;;
69795;SDS011;57073;45.650;9.612;2023-02-15T20:25:48;66.23;;;31.20;;
69795;SDS011;57073;45.650;9.612;2023-02-15T20:35:49;74.10;;;30.02;;
69795;SDS011;57073;45.650;9.612;2023-02-15T20:45:50;73.23;;;29.03;;
69795;SDS011;57073;45.650;9.612;2023-02-15T20:55:50;66.43;;;28.73;;
69795;SDS011;57073;45.650;9.612;2023-02-15T21:05:51;68.10;;;27.75;;
69795;SDS011;57073;45.650;9.612;2023-02-15T21:15:52;65.73;;;25.63;;
69795;SDS011;57073;45.650;9.612;2023-02-15T21:25:54;60.97;;;25.80;;
69795;SDS011;57073;45.650;9.612;2023-02-15T21:35:55;68.67;;;27.13;;
69795;SDS011;57073;45.650;9.612;2023-02-15T21:45:57;63.00;;;26.80;;
69795;SDS011;57073;45.650;9.612;2023-02-15T21:56:19;58.90;;;25.23;;
69795;SDS011;57073;45.650;9.612;2023-02-15T22:06:21;62.37;;;26.50;;
69795;SDS011;57073;45.650;9.612;2023-02-15T22:16:21;62.17;;;26.20;;
69795;SDS011;57073;45.650;9.612;2023-02-15T22:26:23;58.33;;;24.83;;
69795;SDS011;57073;45.650;9.612;2023-02-15T22:36:27;59.30;;;25.37;;
69795;SDS011;57073;45.650;9.612;2023-02-15T22:46:29;45.07;;;20.10;;
69795;SDS011;57073;45.650;9.612;2023-02-15T22:56:49;44.38;;;20.05;;
69795;SDS011;57073;45.650;9.612;2023-02-15T23:06:52;47.90;;;20.07;;
69795;SDS011;57073;45.650;9.612;2023-02-15T23:16:54;44.23;;;19.30;;
69795;SDS011;57073;45.650;9.612;2023-02-15T23:26:54;43.33;;;18.50;;
69795;SDS011;57073;45.650;9.612;2023-02-15T23:37:16;47.57;;;20.13;;
69795;SDS011;57073;45.650;9.612;2023-02-15T23:47:18;43.55;;;18.92;;
69795;SDS011;57073;45.650;9.612;2023-02-15T23:57:19;45.50;;;18.80;;
